METAR Data
IDs: Format: Raw Decoded Include TAF

Data at: 0318 UTC 25 Feb 2021

EDDK 250250Z 12006KT CAVOK 11/06 Q1026 NOSIG